CHQ weather

Chania International Airport
Souda, Chania, Greece

Public forecast

Using degrees Celsius for public forecast. Weather courtesy of forecast.io.

METAR (pilot weather report)

Retrieved 2019/05/21 09:20 UTC (37 minutes ago):

LGSA 210920Z 30005KT 9999 FEW020 BKN100 27/18 Q1014

TAF (pilot weather forecast)

Retrieved 2019/05/21 06:12 UTC (4 hours ago):

TAF LGSA 210500Z 2106/2206 VRB03KT 9999 FEW020 SCT080 BECMG 2107/2109 30013KT